createdAt,value
2019-01-20T07:21:14.885Z,8.83
2019-01-20T07:26:18.662Z,15.47
2019-01-20T07:31:22.396Z,10.27
2019-01-20T07:36:26.122Z,11.57
2019-01-20T07:41:30.532Z,16.47
2019-01-20T07:46:34.264Z,13.53
2019-01-20T07:51:38.003Z,14.30
2019-01-20T07:56:41.727Z,11.20
2019-01-20T08:01:45.540Z,13.97
2019-01-20T08:06:49.367Z,15.57
2019-01-20T08:11:53.444Z,14.83
2019-01-20T08:16:57.297Z,14.67
2019-01-20T08:22:01.144Z,12.53
2019-01-20T08:28:02.231Z,16.63
2019-01-20T08:33:06.000Z,18.03
2019-01-20T08:38:09.901Z,15.93
2019-01-20T08:43:13.658Z,22.93
2019-01-20T08:48:19.672Z,23.73
2019-01-20T08:53:23.440Z,21.60
2019-01-20T08:58:27.438Z,19.73
2019-01-20T09:03:31.534Z,19.70
2019-01-20T09:08:35.663Z,23.77
2019-01-20T09:13:41.619Z,21.80
2019-01-20T09:18:46.014Z,19.47
2019-01-20T09:23:50.175Z,19.93
2019-01-20T09:28:53.908Z,27.60
2019-01-20T09:34:00.769Z,18.33
2019-01-20T09:39:09.347Z,21.03
2019-01-20T09:44:14.442Z,18.20
2019-01-20T09:49:18.733Z,24.27
2019-01-20T09:54:22.827Z,19.47
2019-01-20T09:59:26.687Z,19.83
2019-01-20T10:04:35.200Z,18.60
2019-01-20T10:09:54.593Z,17.23
2019-01-20T10:14:58.751Z,19.13
2019-01-20T10:20:04.102Z,17.40
2019-01-20T10:25:14.930Z,18.60
2019-01-20T10:30:19.858Z,16.97
2019-01-20T10:35:27.305Z,17.12
2019-01-20T10:40:32.305Z,17.48
2019-01-20T10:45:36.440Z,15.60
2019-01-20T10:50:40.363Z,16.33
2019-01-20T10:55:44.178Z,19.40
2019-01-20T11:00:48.004Z,13.77
2019-01-20T11:05:51.881Z,15.40
2019-01-20T11:10:55.714Z,13.47
2019-01-20T11:15:59.645Z,18.40
2019-01-20T11:21:03.508Z,13.97
2019-01-20T11:26:07.441Z,17.43
2019-01-20T11:31:11.258Z,13.10
2019-01-20T11:36:15.086Z,15.13
2019-01-20T11:41:18.968Z,16.70
2019-01-20T11:46:25.079Z,14.57
2019-01-20T11:51:34.365Z,11.67
2019-01-20T11:56:38.192Z,11.90
2019-01-20T12:01:42.054Z,13.27
2019-01-20T12:06:47.890Z,12.00
2019-01-20T12:11:51.787Z,15.30
2019-01-20T12:16:56.999Z,10.47
2019-01-20T12:22:00.973Z,12.20
2019-01-20T12:27:04.969Z,16.90
2019-01-20T12:32:08.742Z,12.97
2019-01-20T12:37:12.595Z,11.83
2019-01-20T12:42:16.391Z,12.37
2019-01-20T12:47:20.140Z,12.57
2019-01-20T12:52:23.924Z,13.23
2019-01-20T12:57:31.707Z,12.93
2019-01-20T13:02:35.738Z,11.70
2019-01-20T13:07:39.549Z,16.50
2019-01-20T13:12:43.548Z,14.27
2019-01-20T13:18:06.455Z,14.20
2019-01-20T13:23:22.637Z,14.07
2019-01-20T13:28:26.712Z,14.43
2019-01-20T13:33:30.517Z,14.03
2019-01-20T13:38:34.314Z,13.62
2019-01-20T13:43:38.227Z,12.63
2019-01-20T13:48:41.962Z,13.75
2019-01-20T13:53:45.782Z,14.47
2019-01-20T13:58:49.630Z,13.43
2019-01-20T14:03:53.362Z,12.63
2019-01-20T14:08:57.183Z,13.37
2019-01-20T14:14:01.044Z,13.27
2019-01-20T14:19:04.893Z,14.73
2019-01-20T14:24:08.764Z,16.30
2019-01-20T14:29:12.557Z,17.73
2019-01-20T14:34:16.369Z,18.00
2019-01-20T14:39:20.258Z,18.53
2019-01-20T14:44:24.073Z,16.60
2019-01-20T14:49:27.836Z,17.10
2019-01-20T14:54:31.582Z,15.83
2019-01-20T14:59:35.376Z,18.00
2019-01-20T15:04:39.356Z,19.23
2019-01-20T15:09:43.101Z,18.00
2019-01-20T15:14:47.791Z,17.53
2019-01-20T15:19:51.597Z,19.13
2019-01-20T15:24:55.357Z,15.87
2019-01-20T15:29:59.334Z,19.90
2019-01-20T15:35:03.306Z,19.37
2019-01-20T15:40:08.081Z,19.97
2019-01-20T15:45:16.524Z,18.90
2019-01-20T15:50:20.666Z,17.17
2019-01-20T15:55:24.558Z,21.20
2019-01-20T16:00:30.392Z,16.50
2019-01-20T16:05:34.128Z,20.67
2019-01-20T16:10:37.946Z,22.90
2019-01-20T16:15:41.743Z,22.00
2019-01-20T16:20:45.480Z,28.20
2019-01-20T16:25:49.235Z,29.97
2019-01-20T16:30:53.037Z,20.67
2019-01-20T16:35:56.797Z,26.60
2019-01-20T16:41:00.593Z,24.93
2019-01-20T16:46:04.374Z,27.43
2019-01-20T16:51:08.128Z,22.63
2019-01-20T16:56:11.915Z,25.80
2019-01-20T17:01:15.811Z,22.13
2019-01-20T17:06:19.605Z,21.27
2019-01-20T17:11:23.361Z,23.93
2019-01-20T17:16:27.126Z,21.00
2019-01-20T17:21:31.016Z,18.50
2019-01-20T17:26:35.011Z,17.43
2019-01-20T17:31:38.894Z,15.83
2019-01-20T17:36:42.695Z,19.13
2019-01-20T17:41:46.669Z,19.67
2019-01-20T17:46:50.522Z,17.00
2019-01-20T17:51:54.314Z,19.77
2019-01-20T17:56:58.275Z,16.57
2019-01-20T18:02:02.179Z,17.23
2019-01-20T18:07:06.126Z,19.07
2019-01-20T18:12:09.966Z,18.73
2019-01-20T18:17:13.824Z,21.20
2019-01-20T18:22:17.672Z,24.17
2019-01-20T18:27:21.464Z,24.90
2019-01-20T18:32:25.247Z,23.93
2019-01-20T18:37:29.001Z,27.60
2019-01-20T18:42:32.817Z,30.13
2019-01-20T18:47:36.697Z,39.80
2019-01-20T18:52:40.532Z,26.37
2019-01-20T18:57:44.376Z,30.87
2019-01-20T19:02:48.142Z,29.77
2019-01-20T19:07:55.430Z,30.27
2019-01-20T19:12:57.542Z,24.97
2019-01-20T19:18:01.384Z,22.53
2019-01-20T19:23:05.646Z,29.70
2019-01-20T19:28:09.509Z,28.40
2019-01-20T19:33:13.402Z,26.53
2019-01-20T19:38:17.204Z,30.03
2019-01-20T19:43:21.030Z,30.30
2019-01-20T19:48:24.849Z,33.17
2019-01-20T19:53:28.686Z,35.77
2019-01-20T19:58:32.422Z,33.37
2019-01-20T20:03:36.187Z,29.30
2019-01-20T20:08:39.959Z,27.63
2019-01-20T20:13:43.780Z,29.87
2019-01-20T20:18:47.527Z,26.30
2019-01-20T20:23:51.309Z,23.80
2019-01-20T20:28:55.144Z,31.60
2019-01-20T20:33:58.918Z,31.00
2019-01-20T20:39:02.653Z,28.13
2019-01-20T20:44:06.502Z,32.53
2019-01-20T20:49:10.313Z,30.53
2019-01-20T20:54:14.207Z,31.37
2019-01-20T20:59:18.037Z,34.00
2019-01-20T21:04:21.981Z,30.50
2019-01-20T21:09:27.565Z,30.53
2019-01-20T21:14:31.428Z,29.57
2019-01-20T21:19:35.172Z,28.60
2019-01-20T21:24:39.197Z,26.87
2019-01-20T21:29:42.961Z,29.90
2019-01-20T21:34:46.818Z,31.30
2019-01-20T21:39:50.604Z,31.40
2019-01-20T21:44:54.377Z,26.37
2019-01-20T21:49:58.313Z,27.70
2019-01-20T21:55:02.186Z,30.73
2019-01-20T22:00:07.482Z,29.60
2019-01-20T22:05:11.703Z,29.07
2019-01-20T22:10:20.360Z,28.87
2019-01-20T22:15:24.208Z,31.90
2019-01-20T22:20:28.035Z,32.40
2019-01-20T22:25:31.780Z,23.13
2019-01-20T22:30:35.594Z,29.87
2019-01-20T22:35:39.364Z,31.83
2019-01-20T22:40:43.165Z,30.40
2019-01-20T22:45:47.005Z,28.30
2019-01-20T22:50:50.794Z,28.10
2019-01-20T22:55:54.558Z,26.60
2019-01-20T23:01:03.220Z,30.17
2019-01-20T23:06:07.234Z,28.50
2019-01-20T23:11:11.045Z,30.13
2019-01-20T23:16:14.938Z,33.18
2019-01-20T23:21:18.725Z,36.90
2019-01-20T23:26:22.434Z,30.67
2019-01-20T23:31:26.193Z,30.17
2019-01-20T23:36:29.991Z,27.37
2019-01-20T23:41:33.777Z,29.30
2019-01-20T23:46:37.531Z,26.83
2019-01-20T23:51:41.301Z,26.93
2019-01-20T23:56:45.151Z,28.10
